Etusivu
METAR-TAF:

METAR-TAF

Lentoasemat :

Madera Municipal Airport

Madera, Kalifornia, Yhdysvallat

Leveyspiiri: 36-59-12N, Pituuspiiri: 120-06-39W, korkeus merenpinnasta: 77 m

Tämänhetkinen sää

Tämä raportti tehtiin 15 minuuttia sitten, kello 19.53 UTC
Tuuli 5 kn lännestä/luoteesta
Lämpötila 12°C
Kosteus 54%
Ilmanpaine 1015 hPa
Näkyvyys: 16.1 km
Hajonneita pilviä 5000 ft:n korkeudessa
Pilvistä 6500 ft:n korkeudessa

METAR: KMAE 021953Z AUTO 29005KT 10SM BKN050 OVC065 12/03 A2996 RMK AO2 RAB00E14 SLP143 P0000 T01220033

Aika: 12:08 (20:08 UTC)


TAF: puuttuu

Säähavainnot ja -ennusteet yli 4000 lentoasemalta (METAR- ja TAF-raportit).

Käytössä olevat sääasemat on merkitty karttaan keltaisilla ja punaisilla pisteillä.

Aseta hiiri pisteen päälle nähdäksesi sääaseman nimen.

Klikkaa sitten nähdäksesi säähavainnot ja -ennusteet.

Kartan vaihtaminen: klikkaa mustalla rastilla varustettuja vihreitä pisteitä, niin voit zoomata sisään; viivalla varustettua vihreää pistettä, niin voit zoomata ulos tai vihreitä nuolia, niin pääset viereisille kartoille.


METAR-TAF: